createdAt,value
2023-05-25T00:02:27.369Z,14.40
2023-05-25T00:05:29.568Z,15.37
2023-05-25T00:08:31.606Z,14.93
2023-05-25T00:11:34.190Z,14.57
2023-05-25T00:14:37.003Z,16.10
2023-05-25T00:17:39.130Z,15.00
2023-05-25T00:20:41.254Z,15.33
2023-05-25T00:23:43.516Z,14.93
2023-05-25T00:26:45.570Z,14.57
2023-05-25T00:29:47.510Z,14.80
2023-05-25T00:32:49.516Z,15.17
2023-05-25T00:35:52.812Z,15.07
2023-05-25T00:38:55.340Z,14.67
2023-05-25T00:41:58.051Z,14.47
2023-05-25T00:45:00.534Z,15.07
2023-05-25T00:48:04.451Z,14.63
2023-05-25T00:51:06.695Z,14.57
2023-05-25T00:54:08.691Z,15.77
2023-05-25T00:57:11.204Z,15.40
2023-05-25T01:00:14.727Z,15.73
2023-05-25T01:03:22.164Z,15.10
2023-05-25T01:06:27.194Z,16.07
2023-05-25T01:09:30.351Z,15.13
2023-05-25T01:12:37.697Z,13.63
2023-05-25T01:15:39.975Z,12.47
2023-05-25T01:18:42.239Z,13.30
2023-05-25T01:21:56.729Z,12.93
2023-05-25T01:25:03.636Z,12.57
2023-05-25T01:28:16.228Z,14.03
2023-05-25T01:31:19.600Z,15.27
2023-05-25T01:34:21.758Z,14.10
2023-05-25T01:37:27.029Z,14.97
2023-05-25T01:40:29.557Z,15.67
2023-05-25T01:43:31.951Z,15.67
2023-05-25T01:46:38.233Z,15.93
2023-05-25T01:50:07.250Z,16.60
2023-05-25T01:53:34.752Z,16.97
2023-05-25T01:56:37.238Z,15.73
2023-05-25T01:59:39.617Z,16.23
2023-05-25T02:02:43.555Z,16.57
2023-05-25T02:05:46.542Z,14.67
2023-05-25T02:08:48.856Z,15.60
2023-05-25T02:11:50.766Z,15.00
2023-05-25T02:14:52.725Z,14.90
2023-05-25T02:17:58.095Z,15.00
2023-05-25T02:21:00.216Z,14.97
2023-05-25T02:24:02.385Z,15.67
2023-05-25T02:27:07.776Z,16.43
2023-05-25T02:30:10.062Z,16.13
2023-05-25T02:33:12.436Z,15.00
2023-05-25T02:36:14.385Z,16.00
2023-05-25T02:39:16.721Z,15.93
2023-05-25T02:42:19.539Z,16.00
2023-05-25T02:45:21.989Z,16.23
2023-05-25T02:48:23.946Z,16.07
2023-05-25T02:51:27.358Z,15.50
2023-05-25T02:54:29.248Z,16.13
2023-05-25T02:57:32.035Z,14.67
2023-05-25T03:00:34.055Z,15.20
2023-05-25T03:03:36.674Z,15.73
2023-05-25T03:06:38.728Z,15.90
2023-05-25T03:09:40.770Z,17.17
2023-05-25T03:12:42.758Z,16.93
2023-05-25T03:15:45.035Z,17.03
2023-05-25T03:18:47.207Z,16.60
2023-05-25T03:21:49.203Z,16.77
2023-05-25T03:24:51.603Z,16.60
2023-05-25T03:27:55.243Z,16.80
2023-05-25T03:30:58.028Z,16.53
2023-05-25T03:34:00.432Z,16.87
2023-05-25T03:37:02.436Z,16.43
2023-05-25T03:40:05.277Z,16.43
2023-05-25T03:43:07.198Z,16.53
2023-05-25T03:46:12.095Z,16.43
2023-05-25T03:49:14.365Z,15.70
2023-05-25T03:52:16.721Z,15.07
2023-05-25T03:55:19.708Z,14.83
2023-05-25T03:58:22.011Z,17.03
2023-05-25T04:01:26.649Z,16.00
2023-05-25T04:04:30.507Z,16.47
2023-05-25T04:07:32.937Z,17.37
2023-05-25T04:10:34.970Z,17.63
2023-05-25T04:13:37.136Z,16.07
2023-05-25T04:16:41.592Z,16.30
2023-05-25T04:19:43.756Z,16.17
2023-05-25T04:22:45.775Z,15.30
2023-05-25T04:25:47.871Z,16.07
2023-05-25T04:28:49.919Z,16.07
2023-05-25T04:31:51.959Z,18.23
2023-05-25T04:34:53.917Z,17.17
2023-05-25T04:37:57.298Z,16.30
2023-05-25T04:41:02.234Z,15.37
2023-05-25T04:44:09.621Z,15.63
2023-05-25T04:47:12.918Z,15.00
2023-05-25T04:50:14.936Z,15.30
2023-05-25T04:53:17.144Z,15.60
2023-05-25T04:56:19.954Z,14.27
2023-05-25T04:59:22.024Z,14.73
2023-05-25T05:02:24.836Z,15.90
2023-05-25T05:05:27.278Z,16.13
2023-05-25T05:08:29.809Z,15.40
2023-05-25T05:11:31.803Z,16.00
2023-05-25T05:14:34.368Z,14.13
2023-05-25T05:17:36.559Z,15.00
2023-05-25T05:20:38.750Z,14.27
2023-05-25T05:23:43.154Z,13.97
2023-05-25T05:26:57.446Z,15.37
2023-05-25T05:30:01.133Z,14.83
2023-05-25T05:33:03.602Z,14.57
2023-05-25T05:36:05.946Z,14.00
2023-05-25T05:39:10.672Z,14.97
2023-05-25T05:42:13.031Z,13.90
2023-05-25T05:45:15.218Z,14.73
2023-05-25T05:48:17.196Z,13.97
2023-05-25T05:51:19.310Z,16.23
2023-05-25T05:54:21.439Z,15.90
2023-05-25T05:57:23.439Z,16.83
2023-05-25T06:00:25.693Z,17.17
2023-05-25T06:03:31.495Z,16.83
2023-05-25T06:06:35.323Z,16.13
2023-05-25T06:09:37.909Z,15.47
2023-05-25T06:12:39.864Z,14.20
2023-05-25T06:15:42.568Z,14.03
2023-05-25T06:18:44.834Z,13.17
2023-05-25T06:21:47.018Z,15.07
2023-05-25T06:24:49.018Z,14.83
2023-05-25T06:27:51.242Z,14.60
2023-05-25T06:30:53.247Z,15.03
2023-05-25T06:33:56.115Z,15.30
2023-05-25T06:36:58.042Z,16.60
2023-05-25T06:40:00.246Z,16.43
2023-05-25T06:43:02.248Z,16.30
2023-05-25T06:46:04.967Z,15.33
2023-05-25T06:49:07.042Z,15.63
2023-05-25T06:52:09.034Z,13.40
2023-05-25T06:55:11.335Z,15.07
2023-05-25T06:58:13.572Z,13.83
2023-05-25T07:01:16.226Z,12.87
2023-05-25T07:04:18.288Z,12.63
2023-05-25T07:07:20.300Z,12.10
2023-05-25T07:10:24.031Z,12.23
2023-05-25T07:13:26.251Z,11.47
2023-05-25T07:16:28.352Z,12.80
2023-05-25T07:19:30.405Z,11.50
2023-05-25T07:22:32.446Z,10.60
2023-05-25T07:25:34.406Z,11.00
2023-05-25T07:28:36.509Z,10.17
2023-05-25T07:31:38.728Z,8.90
2023-05-25T07:34:41.634Z,9.17
2023-05-25T07:37:43.842Z,11.00
2023-05-25T07:40:47.932Z,11.67
2023-05-25T07:43:49.870Z,12.43
2023-05-25T07:46:51.910Z,13.37
2023-05-25T07:49:54.469Z,12.20
2023-05-25T07:52:58.869Z,9.80
2023-05-25T07:56:01.011Z,9.30
2023-05-25T07:59:03.092Z,9.20
2023-05-25T08:02:05.251Z,9.63
2023-05-25T08:05:07.778Z,9.07
2023-05-25T08:08:10.990Z,9.53
2023-05-25T08:11:13.066Z,8.73
2023-05-25T08:14:15.124Z,9.50
2023-05-25T08:17:17.318Z,9.10
2023-05-25T08:20:19.394Z,8.23
2023-05-25T08:23:22.739Z,8.23
2023-05-25T08:26:38.364Z,8.03
2023-05-25T08:29:46.692Z,7.83
2023-05-25T08:32:48.658Z,9.03
2023-05-25T08:35:53.104Z,7.33
2023-05-25T08:38:55.066Z,8.23
2023-05-25T08:41:57.523Z,7.67
2023-05-25T08:44:59.685Z,7.73
2023-05-25T08:48:02.589Z,6.60
2023-05-25T08:51:10.789Z,6.37
2023-05-25T08:54:14.696Z,6.43
2023-05-25T08:57:16.720Z,7.23
2023-05-25T09:00:22.483Z,6.03
2023-05-25T09:03:24.911Z,6.60
2023-05-25T09:06:29.058Z,6.60
2023-05-25T09:09:31.677Z,6.23
2023-05-25T09:12:34.701Z,6.37
2023-05-25T09:15:36.683Z,7.20
2023-05-25T09:18:40.766Z,7.37
2023-05-25T09:21:43.965Z,7.40
2023-05-25T09:24:46.978Z,7.67
2023-05-25T09:27:49.609Z,7.72
2023-05-25T09:30:51.650Z,9.35
2023-05-25T09:34:00.581Z,10.18
2023-05-25T09:37:21.129Z,7.85
2023-05-25T09:40:23.280Z,8.00
2023-05-25T09:43:40.210Z,6.15
2023-05-25T09:46:45.187Z,5.75
2023-05-25T09:49:49.670Z,7.68
2023-05-25T09:52:52.720Z,8.07
2023-05-25T09:55:56.048Z,7.78
2023-05-25T09:58:58.629Z,8.82
2023-05-25T10:02:01.063Z,8.07
2023-05-25T10:05:05.125Z,8.63
2023-05-25T10:08:08.234Z,9.40
2023-05-25T10:11:12.140Z,9.10
2023-05-25T10:14:16.345Z,10.00
2023-05-25T10:17:21.860Z,10.45
2023-05-25T10:20:28.316Z,9.70
2023-05-25T10:23:37.696Z,9.07
2023-05-25T10:26:43.311Z,8.48
2023-05-25T10:29:48.160Z,8.05
2023-05-25T10:32:50.512Z,7.72
2023-05-25T10:36:03.098Z,7.55
2023-05-25T10:39:12.162Z,8.85
2023-05-25T10:42:14.165Z,9.75
2023-05-25T10:45:17.099Z,9.75
2023-05-25T10:48:19.186Z,8.90
2023-05-25T10:51:23.268Z,9.93
2023-05-25T10:54:29.430Z,8.68
2023-05-25T10:57:31.887Z,9.13
2023-05-25T11:00:34.029Z,8.70
2023-05-25T11:03:45.679Z,9.38
2023-05-25T11:06:48.158Z,9.95
2023-05-25T11:09:59.632Z,10.60
2023-05-25T11:13:24.378Z,9.73
2023-05-25T11:16:35.045Z,10.20
2023-05-25T11:19:43.564Z,9.68
2023-05-25T11:22:45.600Z,9.55
2023-05-25T11:25:47.722Z,10.38
2023-05-25T11:28:51.530Z,10.70
2023-05-25T11:31:55.391Z,9.73
2023-05-25T11:34:59.093Z,8.73
2023-05-25T11:38:01.540Z,9.88
2023-05-25T11:41:07.922Z,9.27
2023-05-25T11:44:11.361Z,9.25
2023-05-25T11:47:14.927Z,8.80
2023-05-25T11:50:19.532Z,9.43
2023-05-25T11:53:21.841Z,9.93
2023-05-25T11:56:34.315Z,9.45
2023-05-25T11:59:39.932Z,9.23
2023-05-25T12:02:42.218Z,9.70
2023-05-25T12:05:44.766Z,9.50
2023-05-25T12:08:46.904Z,7.72
2023-05-25T12:11:49.369Z,8.00
2023-05-25T12:14:52.161Z,8.73
2023-05-25T12:17:54.592Z,8.48
2023-05-25T12:20:57.482Z,7.47
2023-05-25T12:24:01.850Z,7.50
2023-05-25T12:27:06.104Z,8.05
2023-05-25T12:30:09.693Z,7.78
2023-05-25T12:33:13.937Z,8.20
2023-05-25T12:36:16.099Z,8.05
2023-05-25T12:39:32.184Z,6.63
2023-05-25T12:42:34.612Z,7.88
2023-05-25T12:45:40.822Z,7.75
2023-05-25T12:48:42.838Z,7.53
2023-05-25T12:51:44.795Z,6.88
2023-05-25T12:54:47.531Z,6.68
2023-05-25T12:57:55.359Z,6.75
2023-05-25T13:00:57.411Z,7.78
2023-05-25T13:03:59.365Z,8.75
2023-05-25T13:07:01.788Z,7.30
2023-05-25T13:10:03.819Z,7.28
2023-05-25T13:13:06.132Z,8.52
2023-05-25T13:16:08.167Z,7.88
2023-05-25T13:19:10.356Z,8.23
2023-05-25T13:22:12.229Z,9.43
2023-05-25T13:25:14.868Z,9.70
2023-05-25T13:28:16.818Z,9.77
2023-05-25T13:31:18.855Z,8.60
2023-05-25T13:34:20.934Z,9.10
2023-05-25T13:37:22.930Z,9.10
2023-05-25T13:40:24.904Z,9.55
2023-05-25T13:43:27.173Z,10.52
2023-05-25T13:46:34.772Z,9.68
2023-05-25T13:49:37.277Z,8.18
2023-05-25T13:52:39.613Z,9.55
2023-05-25T13:55:41.518Z,8.05
2023-05-25T13:58:43.600Z,8.70
2023-05-25T14:01:45.679Z,8.27
2023-05-25T14:04:47.690Z,9.23
2023-05-25T14:07:49.656Z,8.85
2023-05-25T14:10:52.636Z,8.18
2023-05-25T14:13:54.592Z,8.18
2023-05-25T14:16:56.578Z,8.07
2023-05-25T14:19:59.070Z,8.60
2023-05-25T14:23:02.165Z,7.18
2023-05-25T14:26:05.356Z,9.00
2023-05-25T14:29:09.826Z,8.98
2023-05-25T14:32:14.629Z,8.70
2023-05-25T14:35:16.952Z,8.05
2023-05-25T14:38:18.866Z,8.77
2023-05-25T14:41:23.077Z,8.88
2023-05-25T14:44:25.091Z,7.78
2023-05-25T14:47:27.077Z,8.25
2023-05-25T14:50:30.389Z,7.90
2023-05-25T14:53:32.596Z,8.43
2023-05-25T14:56:35.210Z,7.45
2023-05-25T14:59:37.233Z,7.75
2023-05-25T15:02:39.326Z,7.72
2023-05-25T15:05:41.366Z,7.40
2023-05-25T15:08:43.338Z,7.53
2023-05-25T15:11:45.392Z,6.70
2023-05-25T15:14:47.330Z,6.65
2023-05-25T15:17:49.362Z,6.85
2023-05-25T15:20:51.531Z,7.50
2023-05-25T15:23:53.476Z,8.13
2023-05-25T15:26:55.636Z,7.35
2023-05-25T15:29:57.624Z,7.20
2023-05-25T15:32:59.731Z,7.35
2023-05-25T15:36:01.814Z,6.85
2023-05-25T15:39:06.353Z,6.40
2023-05-25T15:42:08.671Z,7.15
2023-05-25T15:45:11.222Z,7.00
2023-05-25T15:48:13.309Z,8.70
2023-05-25T15:51:15.731Z,6.55
2023-05-25T15:54:17.726Z,6.30
2023-05-25T15:57:19.619Z,6.82
2023-05-25T16:00:21.956Z,6.90
2023-05-25T16:03:23.904Z,7.10
2023-05-25T16:06:26.061Z,6.15
2023-05-25T16:09:28.003Z,6.65
2023-05-25T16:12:30.724Z,6.03
2023-05-25T16:15:32.687Z,6.47
2023-05-25T16:18:34.948Z,7.05
2023-05-25T16:21:38.302Z,6.28
2023-05-25T16:24:40.463Z,6.05
2023-05-25T16:27:42.453Z,6.70
2023-05-25T16:30:44.853Z,7.00
2023-05-25T16:33:46.983Z,6.90
2023-05-25T16:36:49.351Z,7.15
2023-05-25T16:39:51.226Z,6.72
2023-05-25T16:42:53.304Z,7.28
2023-05-25T16:45:55.304Z,7.38
2023-05-25T16:48:57.412Z,7.50
2023-05-25T16:51:59.528Z,7.88
2023-05-25T16:55:02.142Z,7.68
2023-05-25T16:58:04.176Z,6.82
2023-05-25T17:01:06.369Z,6.80
2023-05-25T17:04:08.504Z,7.70
2023-05-25T17:07:10.699Z,7.35
2023-05-25T17:10:12.648Z,6.57
2023-05-25T17:13:14.775Z,7.03
2023-05-25T17:16:16.821Z,6.88
2023-05-25T17:19:18.947Z,7.30
2023-05-25T17:22:21.104Z,7.78
2023-05-25T17:25:23.584Z,8.88
2023-05-25T17:28:26.642Z,12.45
2023-05-25T17:31:28.649Z,12.25
2023-05-25T17:34:31.066Z,10.05
2023-05-25T17:37:33.567Z,7.18
2023-05-25T17:40:35.598Z,6.78
2023-05-25T17:43:37.499Z,6.72
2023-05-25T17:46:39.983Z,6.28
2023-05-25T17:49:42.183Z,6.30
2023-05-25T17:52:44.244Z,6.13
2023-05-25T17:55:46.442Z,7.22
2023-05-25T17:58:49.008Z,6.68
2023-05-25T18:01:54.128Z,6.55
2023-05-25T18:04:56.755Z,6.53
2023-05-25T18:07:58.668Z,7.18
2023-05-25T18:11:00.974Z,6.55
2023-05-25T18:14:05.905Z,6.68
2023-05-25T18:17:08.168Z,7.25
2023-05-25T18:20:11.535Z,6.90
2023-05-25T18:23:13.532Z,6.93
2023-05-25T18:26:16.004Z,7.00
2023-05-25T18:29:18.076Z,7.87
2023-05-25T18:32:20.834Z,7.80
2023-05-25T18:35:22.974Z,7.33
2023-05-25T18:38:24.976Z,6.87
2023-05-25T18:41:29.233Z,6.43
2023-05-25T18:44:31.936Z,7.33
2023-05-25T18:47:34.233Z,7.17
2023-05-25T18:50:37.995Z,7.57
2023-05-25T18:53:41.873Z,7.17
2023-05-25T18:56:44.020Z,7.23
2023-05-25T18:59:46.886Z,7.10
2023-05-25T19:02:49.093Z,7.33
2023-05-25T19:05:52.332Z,7.00
2023-05-25T19:08:55.549Z,6.80
2023-05-25T19:11:57.566Z,6.60
2023-05-25T19:14:59.874Z,7.57
2023-05-25T19:18:06.189Z,7.07
2023-05-25T19:21:08.368Z,7.27
2023-05-25T19:24:11.973Z,7.30
2023-05-25T19:27:14.576Z,6.87
2023-05-25T19:30:16.658Z,7.50
2023-05-25T19:33:18.678Z,7.07
2023-05-25T19:36:21.221Z,6.93
2023-05-25T19:39:23.924Z,6.47
2023-05-25T19:42:26.134Z,7.00
2023-05-25T19:45:28.501Z,7.47
2023-05-25T19:48:31.302Z,7.07
2023-05-25T19:51:33.250Z,6.53
2023-05-25T19:54:35.408Z,6.20
2023-05-25T19:57:38.661Z,6.67
2023-05-25T20:00:40.998Z,6.93
2023-05-25T20:03:45.586Z,6.87
2023-05-25T20:06:48.516Z,7.40
2023-05-25T20:09:50.537Z,6.90
2023-05-25T20:12:52.519Z,6.67
2023-05-25T20:15:54.465Z,6.77
2023-05-25T20:18:56.972Z,6.97
2023-05-25T20:22:01.132Z,6.47
2023-05-25T20:25:03.165Z,6.40
2023-05-25T20:28:05.671Z,6.33
2023-05-25T20:31:08.935Z,7.03
2023-05-25T20:34:10.966Z,6.93
2023-05-25T20:37:13.546Z,6.70
2023-05-25T20:40:15.802Z,6.47
2023-05-25T20:43:18.088Z,6.33
2023-05-25T20:46:20.135Z,6.27
2023-05-25T20:49:24.452Z,6.23
2023-05-25T20:52:29.901Z,6.73
2023-05-25T20:55:32.512Z,6.67
2023-05-25T20:58:34.797Z,6.40
2023-05-25T21:01:37.225Z,6.37
2023-05-25T21:04:39.191Z,6.67
2023-05-25T21:07:43.561Z,6.70
2023-05-25T21:10:48.592Z,6.90
2023-05-25T21:13:50.657Z,6.70
2023-05-25T21:16:52.640Z,6.00
2023-05-25T21:19:55.112Z,6.20
2023-05-25T21:22:57.261Z,7.40
2023-05-25T21:25:59.431Z,8.00
2023-05-25T21:29:01.383Z,6.53
2023-05-25T21:32:03.557Z,6.30
2023-05-25T21:35:05.826Z,6.90
2023-05-25T21:38:07.892Z,6.70
2023-05-25T21:41:09.922Z,6.93
2023-05-25T21:44:12.418Z,6.60
2023-05-25T21:47:14.594Z,6.80
2023-05-25T21:50:16.900Z,6.27
2023-05-25T21:53:20.216Z,6.93
2023-05-25T21:56:23.372Z,6.53
2023-05-25T21:59:25.837Z,5.93
2023-05-25T22:02:27.873Z,6.70
2023-05-25T22:05:34.527Z,6.83
2023-05-25T22:08:36.619Z,6.60
2023-05-25T22:11:40.288Z,6.83
2023-05-25T22:14:42.286Z,6.87
2023-05-25T22:17:44.317Z,7.27
2023-05-25T22:20:46.415Z,7.20
2023-05-25T22:23:48.754Z,7.23
2023-05-25T22:26:51.153Z,7.10
2023-05-25T22:29:53.008Z,6.70
2023-05-25T22:32:55.518Z,7.20
2023-05-25T22:35:57.565Z,6.93
2023-05-25T22:38:59.594Z,6.27
2023-05-25T22:42:02.420Z,7.57
2023-05-25T22:45:05.270Z,6.43
2023-05-25T22:48:08.298Z,7.10
2023-05-25T22:51:10.523Z,6.93
2023-05-25T22:54:13.449Z,6.67
2023-05-25T22:57:15.894Z,6.27
2023-05-25T23:00:18.128Z,6.40
2023-05-25T23:03:20.353Z,6.40
2023-05-25T23:06:22.572Z,5.90
2023-05-25T23:09:24.609Z,6.60
2023-05-25T23:12:26.594Z,6.60
2023-05-25T23:15:29.035Z,6.53
2023-05-25T23:18:31.197Z,6.17
2023-05-25T23:21:33.955Z,5.77
2023-05-25T23:24:36.008Z,6.60
2023-05-25T23:27:38.358Z,6.57
2023-05-25T23:30:40.279Z,6.03
2023-05-25T23:33:42.217Z,6.90
2023-05-25T23:36:44.550Z,6.30
2023-05-25T23:39:47.148Z,5.90
2023-05-25T23:42:49.144Z,6.47
2023-05-25T23:45:51.128Z,6.53
2023-05-25T23:48:53.190Z,6.20
2023-05-25T23:51:55.084Z,6.80
2023-05-25T23:54:57.190Z,6.57
2023-05-25T23:57:59.227Z,6.77
